Ark, Virginia
Current Conditions -  °F | °C
As of 11:15 PM on Sunday 25 Jan 2015 (Local Time) from KFYJ Reporting Station
Clear Clear  
Wind Chill:   Ceiling: Unl
Heat Index:   Visibility: 10mi
Dew Point:   Wind: 5mph
Humidity: 68%   Direction: 130°SE
Pressure: 29.88"   Gusts: NA
Location:  37.44°N, 76.58°W
Report Text: KFYJ 260415Z AUTO 13004KT 10SM CLR 06/00 A2988 RMK AO2 T00600004
Loading
Personal Weather Stations






























Interactive Weather Map New forecast layout! Learn more

10-Day Weather Forecast

Advertisements
Track Severe Weather on mobile